LGL431 ELLX-LFBZ
Flight info
| Callsign | LGL431 |
|---|---|
| Flight time | N/A |
| Altitude | 23000 |
| Route | GTQ G21 RLP/N0317F190 G21 LMG R10 MAGEC |
| Aircraft | DH8D/M-SDE2E3FGRY/H |
Departure
| Time | 2026-04-29 11:00 |
|---|---|
| Airport | Luxembourg-Findel International Airport (ELLX) |
Arrival
| Time | N/A |
|---|---|
| Airport | Biarritz Pays Basque airport (LFBZ) |
| Time | Latitude | Longitude | Altitude | Speed | Heading |
|---|---|---|---|---|---|
| 2026-04-29 10:29 | 49.63206 | 6.21335 | 1235 ft | 0 kts | 60° |
| 2026-04-29 10:46 | 49.63206 | 6.21336 | 1234 ft | 0 kts | 60° |
| 2026-04-29 10:46 | 49.63206 | 6.21335 | 1234 ft | 0 kts | 60° |
| 2026-04-29 10:47 | 49.63199 | 6.21317 | 1234 ft | 2 kts | 60° |
| 2026-04-29 10:47 | 49.63192 | 6.21296 | 1234 ft | 2 kts | 68° |
| 2026-04-29 10:47 | 49.63191 | 6.21274 | 1234 ft | 2 kts | 108° |
| 2026-04-29 10:47 | 49.63199 | 6.21256 | 1235 ft | 1 kts | 145° |
| 2026-04-29 10:48 | 49.63203 | 6.21253 | 1235 ft | 0 kts | 150° |
| 2026-04-29 10:54 | 49.63200 | 6.21255 | 1235 ft | 0 kts | 150° |
| 2026-04-29 10:54 | 49.63191 | 6.21262 | 1235 ft | 1 kts | 149° |
| 2026-04-29 10:54 | 49.63179 | 6.21274 | 1235 ft | 2 kts | 149° |
| 2026-04-29 10:55 | 49.63139 | 6.21308 | 1234 ft | 12 kts | 154° |
| 2026-04-29 10:55 | 49.63035 | 6.21334 | 1233 ft | 16 kts | 158° |
| 2026-04-29 10:55 | 49.62954 | 6.21247 | 1234 ft | 18 kts | 242° |
| 2026-04-29 10:55 | 49.62893 | 6.21057 | 1236 ft | 21 kts | 247° |
| 2026-04-29 10:56 | 49.62827 | 6.20838 | 1237 ft | 23 kts | 242° |
| 2026-04-29 10:56 | 49.62717 | 6.20654 | 1236 ft | 24 kts | 217° |
| 2026-04-29 10:56 | 49.62597 | 6.20469 | 1232 ft | 22 kts | 229° |
| 2026-04-29 10:56 | 49.62487 | 6.20259 | 1225 ft | 27 kts | 236° |
| 2026-04-29 10:57 | 49.62400 | 6.20026 | 1215 ft | 19 kts | 239° |
| 2026-04-29 10:57 | 49.62336 | 6.19851 | 1208 ft | 19 kts | 241° |
| 2026-04-29 10:57 | 49.62260 | 6.19646 | 1200 ft | 24 kts | 238° |
| 2026-04-29 10:57 | 49.62178 | 6.19560 | 1196 ft | 0 kts | 153° |
| 2026-04-29 10:58 | 49.62178 | 6.19559 | 1196 ft | 0 kts | 153° |
| 2026-04-29 10:58 | 49.62178 | 6.19560 | 1196 ft | 0 kts | 153° |
| 2026-04-29 10:58 | 49.62174 | 6.19563 | 1196 ft | 2 kts | 153° |
| 2026-04-29 10:58 | 49.62146 | 6.19587 | 1196 ft | 7 kts | 150° |
| 2026-04-29 10:59 | 49.62098 | 6.19660 | 1197 ft | 11 kts | 89° |
| 2026-04-29 10:59 | 49.62104 | 6.19687 | 1198 ft | 0 kts | 61° |
| 2026-04-29 10:59 | 49.62107 | 6.19697 | 1198 ft | 4 kts | 61° |
| 2026-04-29 10:59 | 49.62128 | 6.19757 | 1200 ft | 1 kts | 61° |
| 2026-04-29 11:00 | 49.62213 | 6.19990 | 1211 ft | 63 kts | 59° |
| 2026-04-29 11:00 | 49.62557 | 6.20916 | 1235 ft | 131 kts | 60° |
| 2026-04-29 11:00 | 49.63061 | 6.22301 | 1441 ft | 154 kts | 62° |
| 2026-04-29 11:00 | 49.63531 | 6.23645 | 2309 ft | 136 kts | 65° |
| 2026-04-29 11:01 | 49.63913 | 6.24903 | 2987 ft | 132 kts | 74° |
| 2026-04-29 11:01 | 49.63701 | 6.26200 | 3512 ft | 138 kts | 131° |
| 2026-04-29 11:01 | 49.63037 | 6.27148 | 4191 ft | 131 kts | 124° |
| 2026-04-29 11:01 | 49.62413 | 6.28307 | 4409 ft | 157 kts | 123° |
| 2026-04-29 11:02 | 49.61680 | 6.29652 | 4799 ft | 170 kts | 126° |
| 2026-04-29 11:02 | 49.60806 | 6.31179 | 5416 ft | 176 kts | 126° |
| 2026-04-29 11:02 | 49.59992 | 6.32578 | 5995 ft | 180 kts | 127° |
| 2026-04-29 11:02 | 49.59147 | 6.34017 | 6567 ft | 183 kts | 127° |
| 2026-04-29 11:03 | 49.58288 | 6.35466 | 7137 ft | 185 kts | 127° |
| 2026-04-29 11:03 | 49.57419 | 6.36922 | 7687 ft | 189 kts | 128° |
| 2026-04-29 11:03 | 49.56524 | 6.38414 | 8234 ft | 192 kts | 128° |
| 2026-04-29 11:03 | 49.55550 | 6.39822 | 8775 ft | 199 kts | 142° |
| 2026-04-29 11:04 | 49.54289 | 6.40797 | 9329 ft | 205 kts | 151° |
| 2026-04-29 11:04 | 49.52982 | 6.41684 | 9869 ft | 209 kts | 151° |
| 2026-04-29 11:04 | 49.51656 | 6.42586 | 10429 ft | 211 kts | 151° |
| 2026-04-29 11:04 | 49.50319 | 6.43500 | 10972 ft | 214 kts | 151° |
| 2026-04-29 11:05 | 49.48959 | 6.44433 | 11529 ft | 216 kts | 151° |
| 2026-04-29 11:05 | 49.47586 | 6.45376 | 12090 ft | 219 kts | 151° |
| 2026-04-29 11:05 | 49.46189 | 6.46340 | 12649 ft | 219 kts | 151° |
| 2026-04-29 11:05 | 49.44794 | 6.47310 | 12933 ft | 224 kts | 151° |
| 2026-04-29 11:06 | 49.43364 | 6.48295 | 13423 ft | 225 kts | 152° |
| 2026-04-29 11:06 | 49.41922 | 6.49292 | 13806 ft | 228 kts | 152° |
| 2026-04-29 11:06 | 49.40484 | 6.50287 | 14205 ft | 230 kts | 152° |
| 2026-04-29 11:06 | 49.39018 | 6.51301 | 14590 ft | 232 kts | 152° |
| 2026-04-29 11:07 | 49.37553 | 6.52314 | 14970 ft | 234 kts | 152° |
| 2026-04-29 11:07 | 49.36071 | 6.53337 | 15360 ft | 236 kts | 152° |
| 2026-04-29 11:07 | 49.34572 | 6.54371 | 15763 ft | 237 kts | 152° |
| 2026-04-29 11:07 | 49.33070 | 6.55407 | 16133 ft | 239 kts | 152° |
| 2026-04-29 11:08 | 49.31550 | 6.56455 | 16510 ft | 241 kts | 152° |
| 2026-04-29 11:08 | 49.30020 | 6.57508 | 16872 ft | 243 kts | 152° |
| 2026-04-29 11:08 | 49.28466 | 6.58578 | 17244 ft | 245 kts | 152° |
| 2026-04-29 11:08 | 49.26911 | 6.59648 | 17587 ft | 246 kts | 153° |
| 2026-04-29 11:09 | 49.25341 | 6.60727 | 17933 ft | 249 kts | 152° |
| 2026-04-29 11:09 | 49.23767 | 6.61808 | 18280 ft | 250 kts | 153° |
| 2026-04-29 11:09 | 49.22121 | 6.62709 | 18630 ft | 253 kts | 162° |
| 2026-04-29 11:09 | 49.20407 | 6.63365 | 18944 ft | 256 kts | 164° |
| 2026-04-29 11:10 | 49.18688 | 6.64006 | 19306 ft | 256 kts | 164° |
| 2026-04-29 11:10 | 49.16963 | 6.64651 | 19635 ft | 257 kts | 165° |
| 2026-04-29 11:10 | 49.15207 | 6.65311 | 19929 ft | 260 kts | 165° |
| 2026-04-29 11:10 | 49.13456 | 6.65970 | 20241 ft | 261 kts | 166° |
| 2026-04-29 11:11 | 49.11667 | 6.66645 | 20545 ft | 263 kts | 166° |
| 2026-04-29 11:11 | 49.09893 | 6.67315 | 20818 ft | 265 kts | 166° |
| 2026-04-29 11:11 | 49.08089 | 6.67996 | 21119 ft | 266 kts | 166° |
| 2026-04-29 11:11 | 49.06302 | 6.68672 | 21413 ft | 267 kts | 167° |
| 2026-04-29 11:12 | 49.04498 | 6.69353 | 21681 ft | 268 kts | 167° |
| 2026-04-29 11:12 | 49.02686 | 6.70037 | 21913 ft | 271 kts | 167° |
| 2026-04-29 11:12 | 49.00850 | 6.70730 | 22222 ft | 271 kts | 168° |
| 2026-04-29 11:12 | 48.99014 | 6.71144 | 22456 ft | 269 kts | 188° |
| 2026-04-29 11:13 | 48.97300 | 6.70214 | 22564 ft | 261 kts | 216° |
| 2026-04-29 11:13 | 48.95773 | 6.68725 | 22815 ft | 261 kts | 218° |
| 2026-04-29 11:13 | 48.94253 | 6.67226 | 23065 ft | 263 kts | 218° |
| 2026-04-29 11:13 | 48.92707 | 6.65696 | 23137 ft | 271 kts | 218° |
| 2026-04-29 11:14 | 48.91091 | 6.64097 | 23154 ft | 281 kts | 218° |
| 2026-04-29 11:14 | 48.89424 | 6.62453 | 23155 ft | 291 kts | 218° |
| 2026-04-29 11:14 | 48.87712 | 6.60766 | 23155 ft | 300 kts | 217° |
| 2026-04-29 11:14 | 48.85923 | 6.59008 | 23163 ft | 309 kts | 217° |
| 2026-04-29 11:15 | 48.84107 | 6.57226 | 23157 ft | 318 kts | 217° |
| 2026-04-29 11:15 | 48.82216 | 6.55372 | 23159 ft | 325 kts | 217° |
| 2026-04-29 11:15 | 48.80309 | 6.53504 | 23152 ft | 332 kts | 217° |
| 2026-04-29 11:15 | 48.78357 | 6.51595 | 23157 ft | 338 kts | 217° |
| 2026-04-29 11:16 | 48.76377 | 6.49660 | 23152 ft | 342 kts | 217° |
| 2026-04-29 11:16 | 48.74371 | 6.47701 | 23139 ft | 346 kts | 217° |
| 2026-04-29 11:16 | 48.72323 | 6.45703 | 23141 ft | 349 kts | 217° |
| 2026-04-29 11:16 | 48.70284 | 6.43716 | 23135 ft | 351 kts | 217° |
| 2026-04-29 11:17 | 48.68264 | 6.41692 | 23135 ft | 352 kts | 219° |
| 2026-04-29 11:17 | 48.66234 | 6.39552 | 23135 ft | 354 kts | 219° |
| 2026-04-29 11:17 | 48.64209 | 6.37459 | 23137 ft | 356 kts | 218° |
| 2026-04-29 11:17 | 48.62141 | 6.35425 | 23119 ft | 357 kts | 218° |
| 2026-04-29 11:18 | 48.60067 | 6.33397 | 23137 ft | 358 kts | 217° |
| 2026-04-29 11:18 | 48.57970 | 6.31349 | 23134 ft | 359 kts | 217° |
| 2026-04-29 11:18 | 48.55857 | 6.29286 | 23132 ft | 358 kts | 217° |
| 2026-04-29 11:18 | 48.53786 | 6.27267 | 23113 ft | 356 kts | 217° |
| 2026-04-29 11:19 | 48.51707 | 6.25243 | 23115 ft | 354 kts | 217° |
| 2026-04-29 11:19 | 48.49674 | 6.23263 | 23129 ft | 352 kts | 217° |
| 2026-04-29 11:19 | 48.47602 | 6.21246 | 23114 ft | 351 kts | 217° |
| 2026-04-29 11:19 | 48.45564 | 6.19263 | 23108 ft | 350 kts | 217° |
| 2026-04-29 11:20 | 48.43521 | 6.17278 | 23109 ft | 349 kts | 217° |
| 2026-04-29 11:20 | 48.41495 | 6.15310 | 23122 ft | 348 kts | 217° |
| 2026-04-29 11:20 | 48.39464 | 6.13339 | 23112 ft | 348 kts | 217° |
| 2026-04-29 11:20 | 48.37440 | 6.11376 | 23104 ft | 347 kts | 217° |
| 2026-04-29 11:21 | 48.35415 | 6.09414 | 23101 ft | 347 kts | 217° |
| 2026-04-29 11:21 | 48.33385 | 6.07449 | 23103 ft | 346 kts | 217° |
| 2026-04-29 11:21 | 48.31496 | 6.05255 | 23080 ft | 339 kts | 231° |
| 2026-04-29 11:21 | 48.30052 | 6.02541 | 23100 ft | 335 kts | 237° |
| 2026-04-29 11:22 | 48.28670 | 5.99768 | 23110 ft | 335 kts | 238° |
| 2026-04-29 11:22 | 48.27280 | 5.96974 | 23110 ft | 335 kts | 238° |
| 2026-04-29 11:22 | 48.25873 | 5.94153 | 23107 ft | 335 kts | 238° |
| 2026-04-29 11:22 | 48.24486 | 5.91379 | 23093 ft | 335 kts | 237° |
| 2026-04-29 11:23 | 48.23093 | 5.88601 | 23096 ft | 335 kts | 238° |
| 2026-04-29 11:23 | 48.21688 | 5.85803 | 23093 ft | 335 kts | 237° |
| 2026-04-29 11:23 | 48.20279 | 5.83004 | 23091 ft | 336 kts | 237° |
| 2026-04-29 11:23 | 48.18884 | 5.80237 | 23080 ft | 336 kts | 238° |
| 2026-04-29 11:24 | 48.17477 | 5.77449 | 23087 ft | 336 kts | 237° |
| 2026-04-29 11:24 | 48.16061 | 5.74647 | 23087 ft | 336 kts | 237° |
| 2026-04-29 11:24 | 48.14664 | 5.71888 | 23089 ft | 336 kts | 237° |
| 2026-04-29 11:24 | 48.13264 | 5.69125 | 23080 ft | 335 kts | 237° |
| 2026-04-29 11:25 | 48.11847 | 5.66332 | 23074 ft | 335 kts | 238° |
| 2026-04-29 11:25 | 48.10454 | 5.63589 | 23076 ft | 335 kts | 237° |
| 2026-04-29 11:25 | 48.09039 | 5.60806 | 23074 ft | 334 kts | 237° |
| 2026-04-29 11:25 | 48.07622 | 5.58022 | 23080 ft | 334 kts | 237° |
| 2026-04-29 11:26 | 48.04810 | 5.52507 | 23066 ft | 333 kts | 237° |
| 2026-04-29 11:26 | 48.03397 | 5.49738 | 23068 ft | 333 kts | 237° |
| 2026-04-29 11:26 | 48.02005 | 5.47016 | 23069 ft | 333 kts | 237° |
| 2026-04-29 11:27 | 48.00596 | 5.44261 | 23067 ft | 332 kts | 237° |
| 2026-04-29 11:27 | 47.99206 | 5.41547 | 23067 ft | 332 kts | 237° |
| 2026-04-29 11:27 | 47.97798 | 5.38801 | 23067 ft | 332 kts | 238° |
| 2026-04-29 11:27 | 47.96373 | 5.36022 | 23065 ft | 332 kts | 237° |
| 2026-04-29 11:28 | 47.94965 | 5.33281 | 23063 ft | 332 kts | 237° |
| 2026-04-29 11:28 | 47.93560 | 5.30549 | 23065 ft | 332 kts | 237° |
| 2026-04-29 11:28 | 47.92155 | 5.27818 | 23064 ft | 332 kts | 237° |
| 2026-04-29 11:28 | 47.90737 | 5.25115 | 23064 ft | 334 kts | 234° |
| 2026-04-29 11:29 | 47.89085 | 5.22623 | 23074 ft | 336 kts | 227° |
| 2026-04-29 11:29 | 47.87370 | 5.20258 | 23073 ft | 336 kts | 226° |
| 2026-04-29 11:29 | 47.85667 | 5.17915 | 23069 ft | 336 kts | 227° |
| 2026-04-29 11:29 | 47.83953 | 5.15555 | 23066 ft | 336 kts | 227° |
| 2026-04-29 11:30 | 47.82240 | 5.13196 | 23063 ft | 337 kts | 227° |
| 2026-04-29 11:30 | 47.80512 | 5.10815 | 23065 ft | 337 kts | 227° |
| 2026-04-29 11:30 | 47.78801 | 5.08458 | 23070 ft | 336 kts | 227° |
| 2026-04-29 11:30 | 47.77097 | 5.06110 | 23069 ft | 336 kts | 227° |
| 2026-04-29 11:31 | 47.75386 | 5.03753 | 23063 ft | 337 kts | 227° |
| 2026-04-29 11:31 | 47.73667 | 5.01388 | 23063 ft | 337 kts | 227° |
| 2026-04-29 11:31 | 47.71951 | 4.99027 | 23066 ft | 337 kts | 227° |
| 2026-04-29 11:31 | 47.70238 | 4.96672 | 23067 ft | 337 kts | 227° |
| 2026-04-29 11:32 | 47.68526 | 4.94321 | 23065 ft | 337 kts | 227° |
| 2026-04-29 11:32 | 47.66787 | 4.91935 | 23064 ft | 337 kts | 226° |
| 2026-04-29 11:32 | 47.65073 | 4.89585 | 23060 ft | 337 kts | 226° |
| 2026-04-29 11:32 | 47.63367 | 4.87248 | 23060 ft | 337 kts | 226° |
| 2026-04-29 11:33 | 47.61636 | 4.84879 | 23060 ft | 337 kts | 226° |
| 2026-04-29 11:33 | 47.59923 | 4.82536 | 23060 ft | 337 kts | 226° |
| 2026-04-29 11:33 | 47.58217 | 4.80204 | 23057 ft | 337 kts | 226° |
| 2026-04-29 11:33 | 47.56482 | 4.77837 | 23055 ft | 337 kts | 226° |
| 2026-04-29 11:34 | 47.54772 | 4.75504 | 23057 ft | 337 kts | 226° |
| 2026-04-29 11:34 | 47.53054 | 4.73159 | 23058 ft | 337 kts | 226° |
| 2026-04-29 11:34 | 47.51329 | 4.70804 | 23053 ft | 337 kts | 226° |
| 2026-04-29 11:34 | 47.49616 | 4.68468 | 23049 ft | 337 kts | 226° |
| 2026-04-29 11:35 | 47.47895 | 4.66125 | 23053 ft | 337 kts | 226° |
| 2026-04-29 11:35 | 47.46171 | 4.63778 | 23053 ft | 337 kts | 226° |
| 2026-04-29 11:35 | 47.44442 | 4.61428 | 23051 ft | 336 kts | 226° |
| 2026-04-29 11:35 | 47.42738 | 4.59114 | 23050 ft | 336 kts | 226° |
| 2026-04-29 11:36 | 47.41004 | 4.56761 | 23046 ft | 336 kts | 226° |
| 2026-04-29 11:36 | 47.39302 | 4.54453 | 23046 ft | 336 kts | 226° |
| 2026-04-29 11:36 | 47.37568 | 4.52106 | 23047 ft | 336 kts | 226° |
| 2026-04-29 11:36 | 47.35848 | 4.49778 | 23044 ft | 336 kts | 226° |
| 2026-04-29 11:37 | 47.34142 | 4.47473 | 23040 ft | 336 kts | 226° |
| 2026-04-29 11:37 | 47.32432 | 4.45163 | 23039 ft | 336 kts | 226° |
| 2026-04-29 11:37 | 47.30705 | 4.42832 | 23041 ft | 335 kts | 225° |
| 2026-04-29 11:37 | 47.28998 | 4.40532 | 23037 ft | 335 kts | 226° |
| 2026-04-29 11:38 | 47.27277 | 4.38214 | 23030 ft | 335 kts | 226° |
| 2026-04-29 11:38 | 47.25558 | 4.35901 | 23028 ft | 335 kts | 226° |
| 2026-04-29 11:38 | 47.23824 | 4.33571 | 23029 ft | 335 kts | 225° |
| 2026-04-29 11:38 | 47.22102 | 4.31258 | 23025 ft | 335 kts | 224° |
| 2026-04-29 11:39 | 47.20383 | 4.28953 | 23022 ft | 335 kts | 225° |
| 2026-04-29 11:39 | 47.18682 | 4.26671 | 23018 ft | 335 kts | 225° |
| 2026-04-29 11:39 | 47.16975 | 4.24387 | 23010 ft | 331 kts | 225° |
| 2026-04-29 11:39 | 47.15282 | 4.22125 | 23009 ft | 327 kts | 225° |
| 2026-04-29 11:40 | 47.13599 | 4.19878 | 23008 ft | 323 kts | 224° |
| 2026-04-29 11:40 | 47.11954 | 4.17682 | 23013 ft | 320 kts | 224° |
| 2026-04-29 11:40 | 47.10302 | 4.15477 | 23021 ft | 318 kts | 225° |
| 2026-04-29 11:40 | 47.08690 | 4.13329 | 23016 ft | 315 kts | 225° |
| 2026-04-29 11:41 | 47.07070 | 4.11172 | 23017 ft | 313 kts | 225° |
| 2026-04-29 11:41 | 47.05469 | 4.09040 | 23022 ft | 312 kts | 224° |
| 2026-04-29 11:41 | 47.03876 | 4.06919 | 23032 ft | 310 kts | 225° |
| 2026-04-29 11:41 | 47.02271 | 4.04784 | 23033 ft | 309 kts | 224° |
| 2026-04-29 11:42 | 47.00698 | 4.02693 | 23032 ft | 307 kts | 224° |
| 2026-04-29 11:42 | 46.99124 | 4.00604 | 23035 ft | 306 kts | 224° |
| 2026-04-29 11:42 | 46.97545 | 3.98508 | 23030 ft | 305 kts | 224° |
| 2026-04-29 11:42 | 46.95972 | 3.96425 | 23028 ft | 304 kts | 224° |
| 2026-04-29 11:43 | 46.94405 | 3.94348 | 23023 ft | 304 kts | 224° |
| 2026-04-29 11:43 | 46.92857 | 3.92300 | 23017 ft | 303 kts | 224° |
| 2026-04-29 11:43 | 46.91291 | 3.90229 | 23020 ft | 302 kts | 224° |
| 2026-04-29 11:43 | 46.89738 | 3.88177 | 23017 ft | 301 kts | 224° |
| 2026-04-29 11:44 | 46.88173 | 3.86111 | 23013 ft | 300 kts | 224° |
| 2026-04-29 11:44 | 46.86632 | 3.84079 | 23011 ft | 299 kts | 224° |
| 2026-04-29 11:44 | 46.85092 | 3.82050 | 23008 ft | 298 kts | 224° |
| 2026-04-29 11:44 | 46.83553 | 3.80022 | 23006 ft | 297 kts | 224° |
| 2026-04-29 11:45 | 46.82032 | 3.78021 | 23005 ft | 296 kts | 224° |
| 2026-04-29 11:45 | 46.80503 | 3.76012 | 23002 ft | 295 kts | 224° |
| 2026-04-29 11:45 | 46.78984 | 3.74015 | 23002 ft | 294 kts | 224° |
| 2026-04-29 11:45 | 46.77468 | 3.72026 | 23004 ft | 293 kts | 224° |
| 2026-04-29 11:46 | 46.75965 | 3.70054 | 23002 ft | 292 kts | 224° |
| 2026-04-29 11:46 | 46.74456 | 3.68078 | 23000 ft | 291 kts | 223° |
| 2026-04-29 11:46 | 46.72944 | 3.66096 | 23000 ft | 290 kts | 223° |
| 2026-04-29 11:46 | 46.71460 | 3.64147 | 22998 ft | 290 kts | 224° |
| 2026-04-29 11:47 | 46.70232 | 3.61857 | 22999 ft | 285 kts | 242° |
| 2026-04-29 11:47 | 46.69368 | 3.59265 | 22995 ft | 284 kts | 245° |
| 2026-04-29 11:47 | 46.68538 | 3.56683 | 22999 ft | 284 kts | 245° |
| 2026-04-29 11:47 | 46.67707 | 3.54102 | 22995 ft | 283 kts | 245° |
| 2026-04-29 11:48 | 46.66867 | 3.51504 | 22997 ft | 282 kts | 245° |
| 2026-04-29 11:48 | 46.66028 | 3.48920 | 22994 ft | 282 kts | 245° |
| 2026-04-29 11:48 | 46.65477 | 3.47228 | 22992 ft | 282 kts | 245° |
| 2026-04-29 11:48 | 46.64638 | 3.44655 | 22990 ft | 281 kts | 245° |